sensor_id;sensor_type;location;lat;lon;timestamp;pressure;altitude;pressure_sealevel;temperature;humidity
49377;BME280;35253;34.688;33.040;2022-08-06T00:02:25;99980.44;;;28.89;100.00
49377;BME280;35253;34.688;33.040;2022-08-06T00:04:51;99976.63;;;28.90;100.00
49377;BME280;35253;34.688;33.040;2022-08-06T00:07:16;99981.19;;;28.96;100.00
49377;BME280;35253;34.688;33.040;2022-08-06T00:09:42;99983.25;;;29.01;100.00
49377;BME280;35253;34.688;33.040;2022-08-06T00:12:08;99981.13;;;29.03;100.00
49377;BME280;35253;34.688;33.040;2022-08-06T00:14:33;99981.69;;;29.11;100.00
49377;BME280;35253;34.688;33.040;2022-08-06T00:16:59;99982.91;;;29.16;100.00
49377;BME280;35253;34.688;33.040;2022-08-06T00:19:25;99974.81;;;29.21;100.00
49377;BME280;35253;34.688;33.040;2022-08-06T00:21:51;99979.25;;;29.22;100.00
49377;BME280;35253;34.688;33.040;2022-08-06T00:24:16;99973.63;;;29.35;100.00
49377;BME280;35253;34.688;33.040;2022-08-06T00:26:42;99969.78;;;29.36;100.00
49377;BME280;35253;34.688;33.040;2022-08-06T00:29:08;99975.91;;;29.38;100.00
49377;BME280;35253;34.688;33.040;2022-08-06T00:31:33;99979.28;;;29.40;100.00
49377;BME280;35253;34.688;33.040;2022-08-06T00:33:59;99976.53;;;29.40;100.00
49377;BME280;35253;34.688;33.040;2022-08-06T00:36:32;99972.25;;;29.44;100.00
49377;BME280;35253;34.688;33.040;2022-08-06T00:38:58;99990.22;;;29.58;100.00
49377;BME280;35253;34.688;33.040;2022-08-06T00:41:24;99986.41;;;29.59;100.00
49377;BME280;35253;34.688;33.040;2022-08-06T00:43:50;99979.03;;;29.60;100.00
49377;BME280;35253;34.688;33.040;2022-08-06T00:46:16;99975.22;;;29.61;100.00
49377;BME280;35253;34.688;33.040;2022-08-06T00:48:41;99989.09;;;29.66;100.00
49377;BME280;35253;34.688;33.040;2022-08-06T00:51:07;99976.78;;;29.68;100.00
49377;BME280;35253;34.688;33.040;2022-08-06T00:53:32;99982.75;;;29.65;100.00
49377;BME280;35253;34.688;33.040;2022-08-06T00:55:58;99987.63;;;29.63;100.00
49377;BME280;35253;34.688;33.040;2022-08-06T00:58:26;99992.06;;;29.64;100.00
49377;BME280;35253;34.688;33.040;2022-08-06T01:00:51;99988.69;;;29.62;100.00
49377;BME280;35253;34.688;33.040;2022-08-06T01:03:17;99988.09;;;29.60;100.00
49377;BME280;35253;34.688;33.040;2022-08-06T01:05:43;99996.56;;;29.59;100.00
49377;BME280;35253;34.688;33.040;2022-08-06T01:08:09;99990.22;;;29.58;100.00
49377;BME280;35253;34.688;33.040;2022-08-06T01:10:34;99982.00;;;29.58;100.00
49377;BME280;35253;34.688;33.040;2022-08-06T01:13:00;99989.25;;;29.52;100.00
49377;BME280;35253;34.688;33.040;2022-08-06T01:15:25;99986.44;;;29.41;100.00
49377;BME280;35253;34.688;33.040;2022-08-06T01:17:55;99982.16;;;29.45;100.00
49377;BME280;35253;34.688;33.040;2022-08-06T01:28:10;99992.69;;;29.30;100.00
49377;BME280;35253;34.688;33.040;2022-08-06T01:30:41;99990.63;;;29.25;100.00
49377;BME280;35253;34.688;33.040;2022-08-06T01:33:09;99995.63;;;29.28;100.00
49377;BME280;35253;34.688;33.040;2022-08-06T01:35:41;100001.59;;;29.25;100.00
49377;BME280;35253;34.688;33.040;2022-08-06T01:38:08;99995.47;;;29.23;100.00
49377;BME280;35253;34.688;33.040;2022-08-06T01:40:34;99997.16;;;29.24;100.00
49377;BME280;35253;34.688;33.040;2022-08-06T01:43:01;100008.81;;;29.20;100.00
49377;BME280;35253;34.688;33.040;2022-08-06T01:45:28;100000.00;;;29.18;100.00
49377;BME280;35253;34.688;33.040;2022-08-06T01:47:56;99996.03;;;29.14;100.00
49377;BME280;35253;34.688;33.040;2022-08-06T01:50:25;100002.59;;;29.13;100.00
49377;BME280;35253;34.688;33.040;2022-08-06T01:52:52;99997.53;;;29.09;100.00
49377;BME280;35253;34.688;33.040;2022-08-06T01:55:19;99996.38;;;28.99;100.00
49377;BME280;35253;34.688;33.040;2022-08-06T01:57:52;99993.09;;;28.90;100.00
49377;BME280;35253;34.688;33.040;2022-08-06T02:00:18;100000.69;;;28.63;100.00
49377;BME280;35253;34.688;33.040;2022-08-06T02:02:44;99998.06;;;28.50;100.00
49377;BME280;35253;34.688;33.040;2022-08-06T02:05:11;100011.56;;;28.52;100.00
49377;BME280;35253;34.688;33.040;2022-08-06T02:07:39;100012.94;;;28.36;100.00
49377;BME280;35253;34.688;33.040;2022-08-06T02:10:06;100003.00;;;28.35;100.00
49377;BME280;35253;34.688;33.040;2022-08-06T02:12:32;100008.13;;;28.32;100.00
49377;BME280;35253;34.688;33.040;2022-08-06T02:15:02;100011.69;;;28.32;100.00
49377;BME280;35253;34.688;33.040;2022-08-06T02:17:33;100007.50;;;28.30;100.00
49377;BME280;35253;34.688;33.040;2022-08-06T02:20:00;100013.03;;;28.23;100.00
49377;BME280;35253;34.688;33.040;2022-08-06T02:22:31;100018.31;;;28.18;100.00
49377;BME280;35253;34.688;33.040;2022-08-06T02:25:01;100013.94;;;28.10;100.00
49377;BME280;35253;34.688;33.040;2022-08-06T02:27:27;100015.66;;;28.11;100.00
49377;BME280;35253;34.688;33.040;2022-08-06T02:29:54;100017.47;;;28.17;100.00
49377;BME280;35253;34.688;33.040;2022-08-06T02:32:20;100013.94;;;28.17;100.00
49377;BME280;35253;34.688;33.040;2022-08-06T02:34:46;100015.81;;;28.16;100.00
49377;BME280;35253;34.688;33.040;2022-08-06T02:37:23;100010.28;;;28.23;100.00
49377;BME280;35253;34.688;33.040;2022-08-06T02:39:54;100018.38;;;28.05;100.00
49377;BME280;35253;34.688;33.040;2022-08-06T02:42:29;100012.22;;;28.09;100.00
49377;BME280;35253;34.688;33.040;2022-08-06T02:44:59;100010.03;;;27.87;100.00
49377;BME280;35253;34.688;33.040;2022-08-06T02:49:57;100013.69;;;27.74;100.00
49377;BME280;35253;34.688;33.040;2022-08-06T02:52:46;100008.22;;;27.74;100.00
49377;BME280;35253;34.688;33.040;2022-08-06T02:55:11;100014.34;;;27.69;100.00
49377;BME280;35253;34.688;33.040;2022-08-06T02:57:38;100017.94;;;27.70;100.00
49377;BME280;35253;34.688;33.040;2022-08-06T03:00:06;100021.72;;;27.69;100.00
49377;BME280;35253;34.688;33.040;2022-08-06T03:02:33;100023.41;;;27.70;100.00
49377;BME280;35253;34.688;33.040;2022-08-06T03:05:01;100019.16;;;27.74;100.00
49377;BME280;35253;34.688;33.040;2022-08-06T03:07:27;100014.97;;;27.71;100.00
49377;BME280;35253;34.688;33.040;2022-08-06T03:09:54;100018.19;;;27.62;100.00
49377;BME280;35253;34.688;33.040;2022-08-06T03:12:19;100019.66;;;27.58;100.00
49377;BME280;35253;34.688;33.040;2022-08-06T03:14:46;100020.72;;;27.57;100.00
49377;BME280;35253;34.688;33.040;2022-08-06T03:17:13;100015.84;;;27.65;100.00
49377;BME280;35253;34.688;33.040;2022-08-06T03:19:40;100019.66;;;27.58;100.00
49377;BME280;35253;34.688;33.040;2022-08-06T03:22:06;100025.09;;;27.71;100.00
49377;BME280;35253;34.688;33.040;2022-08-06T03:24:33;100027.19;;;27.75;100.00
49377;BME280;35253;34.688;33.040;2022-08-06T03:27:00;100026.47;;;27.93;100.00
49377;BME280;35253;34.688;33.040;2022-08-06T03:29:26;100035.13;;;27.90;100.00
49377;BME280;35253;34.688;33.040;2022-08-06T03:31:53;100037.22;;;27.88;100.00
49377;BME280;35253;34.688;33.040;2022-08-06T03:34:18;100036.38;;;27.88;100.00
49377;BME280;35253;34.688;33.040;2022-08-06T03:36:44;100026.66;;;27.98;100.00
49377;BME280;35253;34.688;33.040;2022-08-06T03:39:10;100025.88;;;27.85;100.00
49377;BME280;35253;34.688;33.040;2022-08-06T03:41:37;100027.13;;;27.82;100.00
49377;BME280;35253;34.688;33.040;2022-08-06T03:44:03;100026.53;;;27.73;100.00
49377;BME280;35253;34.688;33.040;2022-08-06T03:46:36;100029.84;;;27.89;100.00
49377;BME280;35253;34.688;33.040;2022-08-06T03:49:03;100028.34;;;27.99;100.00
49377;BME280;35253;34.688;33.040;2022-08-06T03:51:29;100030.19;;;28.05;100.00
49377;BME280;35253;34.688;33.040;2022-08-06T03:53:56;100034.16;;;28.16;100.00
49377;BME280;35253;34.688;33.040;2022-08-06T03:56:24;100037.03;;;28.28;100.00
49377;BME280;35253;34.688;33.040;2022-08-06T03:58:51;100030.53;;;28.22;100.00
49377;BME280;35253;34.688;33.040;2022-08-06T04:01:20;100039.09;;;28.39;100.00
49377;BME280;35253;34.688;33.040;2022-08-06T04:03:46;100035.59;;;28.56;100.00
49377;BME280;35253;34.688;33.040;2022-08-06T04:06:13;100040.78;;;28.64;100.00
49377;BME280;35253;34.688;33.040;2022-08-06T04:08:39;100034.63;;;28.69;100.00
49377;BME280;35253;34.688;33.040;2022-08-06T04:11:05;100035.25;;;28.71;100.00
49377;BME280;35253;34.688;33.040;2022-08-06T04:13:31;100039.13;;;28.88;100.00
49377;BME280;35253;34.688;33.040;2022-08-06T04:15:57;100038.63;;;28.98;100.00
49377;BME280;35253;34.688;33.040;2022-08-06T04:18:34;100044.06;;;29.04;100.00
49377;BME280;35253;34.688;33.040;2022-08-06T04:21:01;100048.31;;;29.19;100.00
49377;BME280;35253;34.688;33.040;2022-08-06T04:23:27;100054.16;;;29.29;100.00
49377;BME280;35253;34.688;33.040;2022-08-06T04:25:56;100063.59;;;29.39;100.00
49377;BME280;35253;34.688;33.040;2022-08-06T04:28:23;100066.41;;;29.51;100.00
49377;BME280;35253;34.688;33.040;2022-08-06T04:30:49;100060.75;;;29.64;100.00
49377;BME280;35253;34.688;33.040;2022-08-06T04:33:18;100066.56;;;29.74;100.00
49377;BME280;35253;34.688;33.040;2022-08-06T04:35:44;100067.69;;;29.85;100.00
49377;BME280;35253;34.688;33.040;2022-08-06T04:38:10;100067.16;;;29.94;100.00
49377;BME280;35253;34.688;33.040;2022-08-06T04:40:37;100076.94;;;30.09;100.00
49377;BME280;35253;34.688;33.040;2022-08-06T04:43:06;100074.97;;;30.27;100.00
49377;BME280;35253;34.688;33.040;2022-08-06T04:45:32;100079.84;;;30.25;100.00
49377;BME280;35253;34.688;33.040;2022-08-06T04:47:58;100076.34;;;30.36;100.00
49377;BME280;35253;34.688;33.040;2022-08-06T04:50:24;100075.84;;;30.39;100.00
49377;BME280;35253;34.688;33.040;2022-08-06T04:52:50;100075.84;;;30.39;100.00
49377;BME280;35253;34.688;33.040;2022-08-06T04:55:21;100077.13;;;30.55;100.00
49377;BME280;35253;34.688;33.040;2022-08-06T04:57:47;100077.25;;;30.60;100.00
49377;BME280;35253;34.688;33.040;2022-08-06T05:00:12;100082.75;;;30.60;100.00
49377;BME280;35253;34.688;33.040;2022-08-06T05:02:38;100080.00;;;30.60;100.00
49377;BME280;35253;34.688;33.040;2022-08-06T05:05:04;100073.09;;;30.69;100.00
49377;BME280;35253;34.688;33.040;2022-08-06T05:07:30;100070.34;;;30.69;100.00
49377;BME280;35253;34.688;33.040;2022-08-06T05:09:56;100065.47;;;29.93;100.00
49377;BME280;35253;34.688;33.040;2022-08-06T05:12:26;100064.34;;;29.65;100.00
49377;BME280;35253;34.688;33.040;2022-08-06T05:17:19;100070.53;;;30.56;100.00
49377;BME280;35253;34.688;33.040;2022-08-06T05:19:47;100073.66;;;30.30;100.00
49377;BME280;35253;34.688;33.040;2022-08-06T05:22:15;100065.88;;;30.27;100.00
49377;BME280;35253;34.688;33.040;2022-08-06T05:24:41;100075.00;;;30.39;100.00
49377;BME280;35253;34.688;33.040;2022-08-06T05:27:09;100066.97;;;30.67;100.00
49377;BME280;35253;34.688;33.040;2022-08-06T05:29:34;100079.34;;;31.00;100.00
49377;BME280;35253;34.688;33.040;2022-08-06T05:32:00;100078.44;;;31.29;100.00
49377;BME280;35253;34.688;33.040;2022-08-06T05:34:26;100085.38;;;31.31;100.00
49377;BME280;35253;34.688;33.040;2022-08-06T05:36:52;100088.16;;;31.55;100.00
49377;BME280;35253;34.688;33.040;2022-08-06T05:39:17;100092.09;;;31.36;100.00
49377;BME280;35253;34.688;33.040;2022-08-06T05:41:45;100092.66;;;31.03;100.00
49377;BME280;35253;34.688;33.040;2022-08-06T05:44:10;100100.34;;;31.47;100.00
49377;BME280;35253;34.688;33.040;2022-08-06T05:46:36;100100.09;;;30.61;100.00
49377;BME280;35253;34.688;33.040;2022-08-06T05:49:09;100100.13;;;29.76;100.00
49377;BME280;35253;34.688;33.040;2022-08-06T05:56:45;100102.59;;;30.03;100.00
49377;BME280;35253;34.688;33.040;2022-08-06T05:59:19;100104.38;;;30.27;100.00
49377;BME280;35253;34.688;33.040;2022-08-06T06:01:46;100105.78;;;30.18;100.00
49377;BME280;35253;34.688;33.040;2022-08-06T06:04:12;100107.19;;;30.68;100.00
49377;BME280;35253;34.688;33.040;2022-08-06T06:06:38;100106.75;;;30.95;100.00
49377;BME280;35253;34.688;33.040;2022-08-06T06:09:05;100105.28;;;31.10;100.00
49377;BME280;35253;34.688;33.040;2022-08-06T06:11:32;100108.97;;;30.63;100.00
49377;BME280;35253;34.688;33.040;2022-08-06T06:13:58;100104.75;;;30.30;100.00
49377;BME280;35253;34.688;33.040;2022-08-06T06:19:02;100110.00;;;30.02;100.00
49377;BME280;35253;34.688;33.040;2022-08-06T06:21:32;100107.91;;;30.16;100.00
49377;BME280;35253;34.688;33.040;2022-08-06T06:36:39;100099.97;;;31.79;100.00
49377;BME280;35253;34.688;33.040;2022-08-06T06:39:11;100110.88;;;31.04;100.00
49377;BME280;35253;34.688;33.040;2022-08-06T06:41:45;100105.34;;;30.51;100.00
49377;BME280;35253;34.688;33.040;2022-08-06T06:44:35;100107.66;;;31.18;100.00
49377;BME280;35253;34.688;33.040;2022-08-06T06:47:02;100107.88;;;30.64;100.00
49377;BME280;35253;34.688;33.040;2022-08-06T06:49:39;100105.41;;;30.14;100.00
49377;BME280;35253;34.688;33.040;2022-08-06T06:52:35;100106.13;;;31.11;100.00
49377;BME280;35253;34.688;33.040;2022-08-06T06:55:02;100111.38;;;31.47;100.00
49377;BME280;35253;34.688;33.040;2022-08-06T06:57:31;100112.28;;;30.05;100.00
49377;BME280;35253;34.688;33.040;2022-08-06T06:59:57;100117.03;;;30.28;100.00
49377;BME280;35253;34.688;33.040;2022-08-06T07:02:25;100112.81;;;30.62;100.00
49377;BME280;35253;34.688;33.040;2022-08-06T07:04:53;100119.63;;;31.12;100.00
49377;BME280;35253;34.688;33.040;2022-08-06T07:07:20;100127.00;;;30.11;100.00
49377;BME280;35253;34.688;33.040;2022-08-06T07:09:46;100118.66;;;29.87;100.00
49377;BME280;35253;34.688;33.040;2022-08-06T07:12:12;100117.84;;;29.80;100.00
49377;BME280;35253;34.688;33.040;2022-08-06T07:14:39;100124.03;;;30.12;100.00
49377;BME280;35253;34.688;33.040;2022-08-06T07:17:05;100121.94;;;29.96;100.00
49377;BME280;35253;34.688;33.040;2022-08-06T07:19:32;100119.38;;;30.13;100.00
49377;BME280;35253;34.688;33.040;2022-08-06T07:21:58;100121.34;;;30.24;100.00
49377;BME280;35253;34.688;33.040;2022-08-06T07:24:24;100117.13;;;30.69;100.00
49377;BME280;35253;34.688;33.040;2022-08-06T07:26:52;100115.69;;;31.20;100.00
49377;BME280;35253;34.688;33.040;2022-08-06T07:29:18;100108.88;;;31.46;100.00
49377;BME280;35253;34.688;33.040;2022-08-06T07:31:45;100114.13;;;31.70;100.00
49377;BME280;35253;34.688;33.040;2022-08-06T07:34:11;100105.25;;;31.80;100.00
49377;BME280;35253;34.688;33.040;2022-08-06T07:36:39;100107.63;;;31.88;100.00
49377;BME280;35253;34.688;33.040;2022-08-06T07:39:10;100119.63;;;31.94;100.00
49377;BME280;35253;34.688;33.040;2022-08-06T07:41:36;100110.16;;;31.43;100.00
49377;BME280;35253;34.688;33.040;2022-08-06T07:44:02;100105.38;;;31.50;100.00
49377;BME280;35253;34.688;33.040;2022-08-06T07:46:29;100099.16;;;31.43;100.00
49377;BME280;35253;34.688;33.040;2022-08-06T07:48:57;100092.56;;;31.09;100.00
49377;BME280;35253;34.688;33.040;2022-08-06T07:51:26;100101.31;;;31.76;100.00
49377;BME280;35253;34.688;33.040;2022-08-06T07:53:53;100092.38;;;32.09;100.00
49377;BME280;35253;34.688;33.040;2022-08-06T07:56:19;100099.63;;;31.40;100.00
49377;BME280;35253;34.688;33.040;2022-08-06T07:58:44;100096.44;;;30.78;100.00
49377;BME280;35253;34.688;33.040;2022-08-06T08:01:10;100090.00;;;30.84;100.00
49377;BME280;35253;34.688;33.040;2022-08-06T08:03:36;100087.47;;;30.83;100.00
49377;BME280;35253;34.688;33.040;2022-08-06T08:06:20;100090.66;;;31.45;100.00
49377;BME280;35253;34.688;33.040;2022-08-06T08:08:53;100082.94;;;31.82;100.00
49377;BME280;35253;34.688;33.040;2022-08-06T08:11:19;100087.44;;;31.59;100.00
49377;BME280;35253;34.688;33.040;2022-08-06T08:13:45;100084.09;;;31.11;100.00
49377;BME280;35253;34.688;33.040;2022-08-06T08:16:12;100080.47;;;31.45;100.00
49377;BME280;35253;34.688;33.040;2022-08-06T08:18:38;100089.19;;;31.07;100.00
49377;BME280;35253;34.688;33.040;2022-08-06T08:21:04;100083.25;;;31.10;100.00
49377;BME280;35253;34.688;33.040;2022-08-06T08:23:30;100077.00;;;31.50;100.00
49377;BME280;35253;34.688;33.040;2022-08-06T08:26:00;100075.38;;;31.89;100.00
49377;BME280;35253;34.688;33.040;2022-08-06T08:28:25;100075.59;;;31.99;100.00
49377;BME280;35253;34.688;33.040;2022-08-06T08:30:51;100074.94;;;32.08;100.00
49377;BME280;35253;34.688;33.040;2022-08-06T08:33:17;100071.69;;;32.23;100.00
49377;BME280;35253;34.688;33.040;2022-08-06T08:35:42;100066.19;;;31.48;100.00
49377;BME280;35253;34.688;33.040;2022-08-06T08:38:08;100068.75;;;32.01;100.00
49377;BME280;35253;34.688;33.040;2022-08-06T08:40:34;100072.19;;;32.20;100.00
49377;BME280;35253;34.688;33.040;2022-08-06T08:43:02;100062.50;;;32.34;100.00
49377;BME280;35253;34.688;33.040;2022-08-06T08:45:30;100063.53;;;32.45;100.00
49377;BME280;35253;34.688;33.040;2022-08-06T08:47:56;100058.97;;;32.22;100.00
49377;BME280;35253;34.688;33.040;2022-08-06T08:50:23;100059.38;;;32.42;100.00
49377;BME280;35253;34.688;33.040;2022-08-06T08:52:51;100066.22;;;32.56;100.00
49377;BME280;35253;34.688;33.040;2022-08-06T08:55:22;100064.75;;;32.66;100.00
49377;BME280;35253;34.688;33.040;2022-08-06T08:57:49;100052.97;;;32.87;100.00
49377;BME280;35253;34.688;33.040;2022-08-06T09:00:16;100063.03;;;32.93;100.00
49377;BME280;35253;34.688;33.040;2022-08-06T09:02:42;100048.94;;;33.11;100.00
49377;BME280;35253;34.688;33.040;2022-08-06T09:05:07;100051.06;;;33.21;100.00
49377;BME280;35253;34.688;33.040;2022-08-06T09:07:34;100051.38;;;33.07;100.00
49377;BME280;35253;34.688;33.040;2022-08-06T09:10:00;100036.69;;;33.40;100.00
49377;BME280;35253;34.688;33.040;2022-08-06T09:12:25;100049.28;;;32.98;100.00
49377;BME280;35253;34.688;33.040;2022-08-06T09:14:51;100038.59;;;32.40;100.00
49377;BME280;35253;34.688;33.040;2022-08-06T09:17:16;100047.75;;;32.12;100.00
49377;BME280;35253;34.688;33.040;2022-08-06T09:19:42;100043.69;;;32.03;100.00
49377;BME280;35253;34.688;33.040;2022-08-06T09:22:08;100049.66;;;32.40;100.00
49377;BME280;35253;34.688;33.040;2022-08-06T09:24:34;100036.44;;;32.25;100.00
49377;BME280;35253;34.688;33.040;2022-08-06T09:29:34;100044.09;;;32.51;100.00
49377;BME280;35253;34.688;33.040;2022-08-06T09:32:00;100043.88;;;32.86;100.00
49377;BME280;35253;34.688;33.040;2022-08-06T09:34:32;100039.22;;;32.42;100.00
49377;BME280;35253;34.688;33.040;2022-08-06T09:36:58;100038.53;;;31.95;100.00
49377;BME280;35253;34.688;33.040;2022-08-06T09:39:31;100032.84;;;32.41;100.00
49377;BME280;35253;34.688;33.040;2022-08-06T09:41:57;100048.72;;;33.13;100.00
49377;BME280;35253;34.688;33.040;2022-08-06T09:44:22;100036.97;;;32.55;100.00
49377;BME280;35253;34.688;33.040;2022-08-06T09:46:48;100039.97;;;32.37;100.00
49377;BME280;35253;34.688;33.040;2022-08-06T09:49:18;100049.19;;;32.59;100.00
49377;BME280;35253;34.688;33.040;2022-08-06T09:51:43;100031.25;;;32.90;100.00
49377;BME280;35253;34.688;33.040;2022-08-06T09:54:11;100044.47;;;32.43;100.00
49377;BME280;35253;34.688;33.040;2022-08-06T09:56:44;100027.78;;;32.67;100.00
49377;BME280;35253;34.688;33.040;2022-08-06T09:59:10;100026.59;;;33.13;100.00
49377;BME280;35253;34.688;33.040;2022-08-06T10:04:05;100025.06;;;33.38;100.00
49377;BME280;35253;34.688;33.040;2022-08-06T10:06:30;100029.38;;;33.29;100.00
49377;BME280;35253;34.688;33.040;2022-08-06T10:09:09;100021.06;;;33.29;100.00
49377;BME280;35253;34.688;33.040;2022-08-06T10:11:39;100019.53;;;33.38;100.00
49377;BME280;35253;34.688;33.040;2022-08-06T10:14:05;100004.53;;;33.73;100.00
49377;BME280;35253;34.688;33.040;2022-08-06T10:16:31;100003.75;;;33.56;100.00
49377;BME280;35253;34.688;33.040;2022-08-06T10:18:57;100020.59;;;33.76;96.88
49377;BME280;35253;34.688;33.040;2022-08-06T10:21:27;100012.38;;;33.81;100.00
49377;BME280;35253;34.688;33.040;2022-08-06T10:23:58;100007.28;;;33.51;100.00
49377;BME280;35253;34.688;33.040;2022-08-06T10:26:31;100000.16;;;33.77;100.00
49377;BME280;35253;34.688;33.040;2022-08-06T10:29:02;100003.66;;;33.50;100.00
49377;BME280;35253;34.688;33.040;2022-08-06T10:31:28;99997.97;;;33.79;100.00
49377;BME280;35253;34.688;33.040;2022-08-06T10:33:58;100000.78;;;33.84;100.00
49377;BME280;35253;34.688;33.040;2022-08-06T10:36:40;99994.38;;;33.18;100.00
49377;BME280;35253;34.688;33.040;2022-08-06T10:39:06;99997.09;;;32.80;100.00
49377;BME280;35253;34.688;33.040;2022-08-06T10:41:32;99997.94;;;33.35;100.00
49377;BME280;35253;34.688;33.040;2022-08-06T10:44:00;100005.69;;;33.17;100.00
49377;BME280;35253;34.688;33.040;2022-08-06T10:46:26;100003.03;;;33.43;100.00
49377;BME280;35253;34.688;33.040;2022-08-06T10:48:52;99998.81;;;33.19;100.00
49377;BME280;35253;34.688;33.040;2022-08-06T10:51:18;99991.50;;;33.13;100.00
49377;BME280;35253;34.688;33.040;2022-08-06T10:53:44;99993.63;;;33.06;100.00
49377;BME280;35253;34.688;33.040;2022-08-06T10:56:12;99997.09;;;32.80;100.00
49377;BME280;35253;34.688;33.040;2022-08-06T10:58:38;99999.47;;;33.26;100.00
49377;BME280;35253;34.688;33.040;2022-08-06T11:01:05;99988.63;;;33.85;100.00
49377;BME280;35253;34.688;33.040;2022-08-06T11:06:13;99993.31;;;32.86;100.00
49377;BME280;35253;34.688;33.040;2022-08-06T11:16:25;99984.25;;;33.24;100.00
49377;BME280;35253;34.688;33.040;2022-08-06T11:18:57;99981.56;;;33.12;100.00
49377;BME280;35253;34.688;33.040;2022-08-06T11:21:42;99973.72;;;33.04;100.00
49377;BME280;35253;34.688;33.040;2022-08-06T11:24:08;99976.16;;;33.17;100.00
49377;BME280;35253;34.688;33.040;2022-08-06T11:26:38;99985.94;;;32.91;100.00
49377;BME280;35253;34.688;33.040;2022-08-06T11:29:08;99981.50;;;33.07;100.00
49377;BME280;35253;34.688;33.040;2022-08-06T11:31:41;99975.97;;;33.07;100.00
49377;BME280;35253;34.688;33.040;2022-08-06T11:34:10;99979.72;;;33.18;100.00
49377;BME280;35253;34.688;33.040;2022-08-06T11:39:10;99971.91;;;33.31;100.00
49377;BME280;35253;34.688;33.040;2022-08-06T11:41:45;99979.88;;;33.11;100.00
49377;BME280;35253;34.688;33.040;2022-08-06T11:44:12;99962.66;;;33.64;100.00
49377;BME280;35253;34.688;33.040;2022-08-06T11:46:42;99982.25;;;33.41;100.00
49377;BME280;35253;34.688;33.040;2022-08-06T11:49:20;99971.81;;;33.26;100.00
49377;BME280;35253;34.688;33.040;2022-08-06T11:51:50;99968.66;;;33.18;100.00
49377;BME280;35253;34.688;33.040;2022-08-06T11:54:23;99953.16;;;33.33;100.00
49377;BME280;35253;34.688;33.040;2022-08-06T11:59:23;99946.19;;;33.52;100.00
49377;BME280;35253;34.688;33.040;2022-08-06T12:01:50;99938.78;;;33.80;100.00
49377;BME280;35253;34.688;33.040;2022-08-06T12:09:44;99959.38;;;33.45;97.86
49377;BME280;35253;34.688;33.040;2022-08-06T12:14:53;99932.53;;;33.89;100.00
49377;BME280;35253;34.688;33.040;2022-08-06T12:17:18;99933.38;;;33.90;92.30
49377;BME280;35253;34.688;33.040;2022-08-06T12:19:45;99936.84;;;33.80;95.29
49377;BME280;35253;34.688;33.040;2022-08-06T12:22:14;99932.81;;;33.44;95.02
49377;BME280;35253;34.688;33.040;2022-08-06T12:24:43;99921.97;;;33.16;98.90
49377;BME280;35253;34.688;33.040;2022-08-06T12:27:10;99922.09;;;33.26;98.62
49377;BME280;35253;34.688;33.040;2022-08-06T12:29:36;99920.13;;;33.43;99.77
49377;BME280;35253;34.688;33.040;2022-08-06T12:32:18;99928.72;;;33.25;100.00
49377;BME280;35253;34.688;33.040;2022-08-06T12:34:44;99917.75;;;33.30;100.00
49377;BME280;35253;34.688;33.040;2022-08-06T12:37:10;99922.28;;;33.41;100.00
49377;BME280;35253;34.688;33.040;2022-08-06T12:39:39;99910.66;;;33.39;100.00
49377;BME280;35253;34.688;33.040;2022-08-06T12:42:40;99913.53;;;33.49;100.00
49377;BME280;35253;34.688;33.040;2022-08-06T12:45:08;99909.06;;;33.43;100.00
49377;BME280;35253;34.688;33.040;2022-08-06T12:47:34;99922.44;;;33.30;100.00
49377;BME280;35253;34.688;33.040;2022-08-06T12:49:59;99907.56;;;33.36;100.00
49377;BME280;35253;34.688;33.040;2022-08-06T12:52:24;99914.13;;;33.51;100.00
49377;BME280;35253;34.688;33.040;2022-08-06T12:54:50;99911.19;;;32.98;100.00
49377;BME280;35253;34.688;33.040;2022-08-06T12:57:19;99901.56;;;33.17;100.00
49377;BME280;35253;34.688;33.040;2022-08-06T12:59:44;99908.44;;;33.63;100.00
49377;BME280;35253;34.688;33.040;2022-08-06T13:02:10;99907.56;;;33.14;100.00
49377;BME280;35253;34.688;33.040;2022-08-06T13:04:36;99897.53;;;33.08;100.00
49377;BME280;35253;34.688;33.040;2022-08-06T13:07:02;99901.75;;;32.94;100.00
49377;BME280;35253;34.688;33.040;2022-08-06T13:09:29;99897.06;;;32.73;100.00
49377;BME280;35253;34.688;33.040;2022-08-06T13:11:55;99899.03;;;32.60;100.00
49377;BME280;35253;34.688;33.040;2022-08-06T13:14:21;99888.88;;;32.83;100.00
49377;BME280;35253;34.688;33.040;2022-08-06T13:16:47;99890.56;;;32.84;100.00
49377;BME280;35253;34.688;33.040;2022-08-06T13:19:14;99889.34;;;33.35;100.00
49377;BME280;35253;34.688;33.040;2022-08-06T13:21:41;99893.44;;;32.55;100.00
49377;BME280;35253;34.688;33.040;2022-08-06T13:24:07;99885.09;;;32.50;100.00
49377;BME280;35253;34.688;33.040;2022-08-06T13:26:34;99887.53;;;32.63;100.00
49377;BME280;35253;34.688;33.040;2022-08-06T13:29:06;99888.34;;;32.47;100.00
49377;BME280;35253;34.688;33.040;2022-08-06T13:31:33;99905.00;;;32.69;100.00
49377;BME280;35253;34.688;33.040;2022-08-06T13:34:02;99890.94;;;32.71;100.00
49377;BME280;35253;34.688;33.040;2022-08-06T13:36:28;99879.91;;;32.37;100.00
49377;BME280;35253;34.688;33.040;2022-08-06T13:38:54;99891.34;;;32.12;100.00